Time;durP1;ratioP1;P1;durP2;ratioP2;P2;SDS_P1;SDS_P2;PMS_P1;PMS_P2;Temp;Humidity;BMP_temperature;BMP_pressure;BME280_temperature;BME280_humidity;BME280_pressure;Samples;Min_cycle;Max_cycle;Signal;HPM_P1;HPM_P2
2022/01/29 00:01:19;;;;;;;2.30;2.10;;;;;;;;;;5047134;28;20032;-64
2022/01/29 00:03:44;;;;;;;0.98;0.85;;;;;;;;;;5046350;28;20044;-64
2022/01/29 00:06:09;;;;;;;0.63;0.63;;;;;;;;;;5045713;28;20028;-65
2022/01/29 00:08:34;;;;;;;0.15;0.15;;;;;;;;;;5046310;28;20480;-65
2022/01/29 00:11:07;;;;;;;1.58;1.48;;;;;;;;;;5044207;28;20132;-66
2022/01/29 00:13:34;;;;;;;0.00;0.00;;;;;;;;;;5047319;28;20451;-65
2022/01/29 00:16:00;;;;;;;1.50;1.50;;;;;;;;;;5046575;28;20100;-65
2022/01/29 00:18:25;;;;;;;3.83;1.05;;;;;;;;;;5047245;28;20108;-64
2022/01/29 00:20:50;;;;;;;2.47;2.38;;;;;;;;;;5047265;28;20119;-65
2022/01/29 00:23:15;;;;;;;0.00;0.00;;;;;;;;;;5051605;28;20057;-64
2022/01/29 00:25:40;;;;;;;1.00;0.98;;;;;;;;;;5047306;28;20074;-63
2022/01/29 00:28:06;;;;;;;1.98;1.88;;;;;;;;;;5047421;28;20028;-65
2022/01/29 00:30:38;;;;;;;0.85;0.85;;;;;;;;;;5046677;28;20036;-64
2022/01/29 00:33:03;;;;;;;0.22;0.22;;;;;;;;;;5048884;28;20092;-64
2022/01/29 00:35:28;;;;;;;1.35;1.35;;;;;;;;;;5055674;28;20442;-64
2022/01/29 00:37:53;;;;;;;1.23;1.13;;;;;;;;;;5051630;28;20096;-64
2022/01/29 00:40:20;;;;;;;4.22;3.83;;;;;;;;;;5058148;28;20044;-64
2022/01/29 00:42:45;;;;;;;0.85;0.85;;;;;;;;;;5056570;28;20029;-65
2022/01/29 00:45:11;;;;;;;0.70;0.70;;;;;;;;;;5053250;28;20032;-65
2022/01/29 00:47:36;;;;;;;1.75;1.75;;;;;;;;;;5050226;28;20059;-64
2022/01/29 00:50:01;;;;;;;0.47;0.47;;;;;;;;;;5050349;28;20017;-65
2022/01/29 00:52:26;;;;;;;0.25;0.25;;;;;;;;;;5050681;28;20397;-65
2022/01/29 00:54:52;;;;;;;0.38;0.20;;;;;;;;;;5051452;28;20104;-66
2022/01/29 00:57:17;;;;;;;0.77;0.77;;;;;;;;;;5050323;28;20025;-65
2022/01/29 00:59:42;;;;;;;3.80;2.50;;;;;;;;;;5052035;28;20075;-65
2022/01/29 01:02:09;;;;;;;0.93;0.90;;;;;;;;;;5049704;28;20025;-65
2022/01/29 01:04:38;;;;;;;4.68;4.47;;;;;;;;;;5050410;28;20097;-64
2022/01/29 01:07:04;;;;;;;0.10;0.10;;;;;;;;;;5048531;28;20031;-66
2022/01/29 01:09:29;;;;;;;0.43;0.43;;;;;;;;;;5050516;28;20377;-64
2022/01/29 01:11:54;;;;;;;0.65;0.38;;;;;;;;;;5050947;28;20487;-64
2022/01/29 01:14:19;;;;;;;3.13;1.38;;;;;;;;;;5050333;28;20021;-64
2022/01/29 01:16:44;;;;;;;0.05;0.05;;;;;;;;;;5049973;28;20024;-64
2022/01/29 01:19:10;;;;;;;0.20;0.20;;;;;;;;;;5050189;28;20032;-65
2022/01/29 01:21:35;;;;;;;0.98;0.73;;;;;;;;;;5050614;28;20083;-64
2022/01/29 01:24:00;;;;;;;2.13;1.60;;;;;;;;;;5049401;28;20091;-65
2022/01/29 01:26:25;;;;;;;1.00;0.32;;;;;;;;;;5056350;28;20029;-67
2022/01/29 01:28:51;;;;;;;0.08;0.05;;;;;;;;;;5056200;28;20031;-67
2022/01/29 01:31:16;;;;;;;1.73;1.23;;;;;;;;;;5050905;28;20029;-68
2022/01/29 01:33:43;;;;;;;2.78;2.60;;;;;;;;;;5073422;28;20339;-67
2022/01/29 01:36:08;;;;;;;7.88;1.85;;;;;;;;;;5060162;28;20021;-67
2022/01/29 01:41:03;;;;;;;0.22;0.20;;;;;;;;;;5061132;28;20128;-66
2022/01/29 01:43:29;;;;;;;0.25;0.25;;;;;;;;;;5055402;28;20029;-65
2022/01/29 01:45:54;;;;;;;0.47;0.25;;;;;;;;;;5050413;28;20465;-66
2022/01/29 01:48:19;;;;;;;1.95;0.63;;;;;;;;;;5057239;28;20048;-66
2022/01/29 01:50:44;;;;;;;2.80;2.58;;;;;;;;;;5053845;28;20043;-67
2022/01/29 01:53:10;;;;;;;1.63;1.33;;;;;;;;;;5050777;28;20021;-66
2022/01/29 01:55:36;;;;;;;1.05;0.98;;;;;;;;;;5050584;28;20019;-65
2022/01/29 01:58:01;;;;;;;5.43;4.70;;;;;;;;;;5048613;28;20021;-66
2022/01/29 02:00:27;;;;;;;0.10;0.10;;;;;;;;;;5050098;28;20036;-65
2022/01/29 02:02:52;;;;;;;4.28;3.90;;;;;;;;;;5049928;28;20384;-66
2022/01/29 02:05:18;;;;;;;2.05;1.02;;;;;;;;;;5049559;28;20020;-66
2022/01/29 02:07:43;;;;;;;0.38;0.38;;;;;;;;;;5050127;28;20454;-66
2022/01/29 02:10:10;;;;;;;1.52;1.52;;;;;;;;;;5049514;28;20025;-65
2022/01/29 02:12:49;;;;;;;0.57;0.57;;;;;;;;;;5049962;28;20024;-66
2022/01/29 02:15:15;;;;;;;0.68;0.45;;;;;;;;;;5048750;28;20437;-65
2022/01/29 02:17:40;;;;;;;3.60;3.40;;;;;;;;;;5050137;28;20021;-66
2022/01/29 02:20:06;;;;;;;3.05;2.35;;;;;;;;;;5049389;28;20178;-65
2022/01/29 02:22:31;;;;;;;0.55;0.55;;;;;;;;;;5049814;28;20482;-66
2022/01/29 02:24:56;;;;;;;0.00;0.00;;;;;;;;;;5049909;28;20063;-65
2022/01/29 02:27:22;;;;;;;4.85;3.80;;;;;;;;;;5048854;28;20036;-66
2022/01/29 02:29:49;;;;;;;0.00;0.00;;;;;;;;;;5049750;28;20120;-65
2022/01/29 02:32:14;;;;;;;1.05;1.00;;;;;;;;;;5049345;28;20016;-66
2022/01/29 02:34:40;;;;;;;0.63;0.63;;;;;;;;;;5049820;28;20035;-65
2022/01/29 02:37:06;;;;;;;0.00;0.00;;;;;;;;;;5048793;28;20749;-65
2022/01/29 02:39:31;;;;;;;1.08;1.00;;;;;;;;;;5050046;28;20017;-65
2022/01/29 02:41:57;;;;;;;1.65;1.55;;;;;;;;;;5049860;28;20020;-65
2022/01/29 02:44:22;;;;;;;0.00;0.00;;;;;;;;;;5049212;28;20033;-65
2022/01/29 02:46:53;;;;;;;0.00;0.00;;;;;;;;;;5049559;28;20036;-66
2022/01/29 02:49:21;;;;;;;1.17;1.17;;;;;;;;;;5049112;28;20029;-66
2022/01/29 02:51:50;;;;;;;0.32;0.32;;;;;;;;;;5049680;28;20021;-66
2022/01/29 02:54:15;;;;;;;;;;;;;;;;;;5048666;28;20381;-65
2022/01/29 02:56:41;;;;;;;1.55;1.55;;;;;;;;;;5048389;28;20360;-65
2022/01/29 02:59:07;;;;;;;0.93;0.93;;;;;;;;;;5048726;28;20275;-66
2022/01/29 03:01:33;;;;;;;2.70;2.55;;;;;;;;;;5049085;28;20016;-65
2022/01/29 03:03:58;;;;;;;0.00;0.00;;;;;;;;;;5047148;28;20039;-66
2022/01/29 03:06:23;;;;;;;4.63;1.15;;;;;;;;;;5048630;28;20078;-65
2022/01/29 03:08:48;;;;;;;0.00;0.00;;;;;;;;;;5048914;28;20021;-65
2022/01/29 03:11:19;;;;;;;6.72;2.88;;;;;;;;;;5048463;28;20032;-65
2022/01/29 03:13:44;;;;;;;2.58;2.47;;;;;;;;;;5048981;28;20087;-65
2022/01/29 03:16:09;;;;;;;1.13;0.82;;;;;;;;;;5048786;28;20013;-65
2022/01/29 03:18:34;;;;;;;0.05;0.05;;;;;;;;;;5048441;28;20017;-65
2022/01/29 03:21:00;;;;;;;5.68;2.13;;;;;;;;;;5048924;28;20096;-65
2022/01/29 03:23:25;;;;;;;4.82;2.72;;;;;;;;;;5047994;28;20030;-65
2022/01/29 03:25:50;;;;;;;0.45;0.45;;;;;;;;;;5047795;28;20480;-65
2022/01/29 03:28:15;;;;;;;2.58;2.00;;;;;;;;;;5051326;28;20513;-65
2022/01/29 03:30:40;;;;;;;2.47;2.38;;;;;;;;;;5048569;28;20054;-65
2022/01/29 03:33:06;;;;;;;1.85;1.75;;;;;;;;;;5048250;28;20020;-66
2022/01/29 03:35:31;;;;;;;3.28;1.55;;;;;;;;;;5048546;28;20044;-65
2022/01/29 03:37:56;;;;;;;1.13;1.13;;;;;;;;;;5048266;28;20021;-65
2022/01/29 03:40:22;;;;;;;0.00;0.00;;;;;;;;;;5047905;28;20490;-64
2022/01/29 03:42:59;;;;;;;5.05;3.38;;;;;;;;;;5048599;28;20041;-64
2022/01/29 03:45:25;;;;;;;5.10;3.63;;;;;;;;;;5049465;28;20404;-65
2022/01/29 03:47:50;;;;;;;0.63;0.63;;;;;;;;;;5048353;28;20074;-65
2022/01/29 03:50:15;;;;;;;2.30;2.15;;;;;;;;;;5047845;28;20182;-65
2022/01/29 03:52:40;;;;;;;0.93;0.93;;;;;;;;;;5047247;28;20048;-64
2022/01/29 03:55:06;;;;;;;0.00;0.00;;;;;;;;;;5049689;28;20056;-65
2022/01/29 03:57:31;;;;;;;0.40;0.40;;;;;;;;;;5047789;28;20147;-65
2022/01/29 03:59:56;;;;;;;0.98;0.98;;;;;;;;;;5049559;28;20029;-65
2022/01/29 04:02:21;;;;;;;0.60;0.60;;;;;;;;;;5047931;28;20396;-64
2022/01/29 04:04:46;;;;;;;0.25;0.25;;;;;;;;;;5048203;28;20029;-65
2022/01/29 04:07:12;;;;;;;2.17;1.85;;;;;;;;;;5047574;28;20035;-65
2022/01/29 04:09:39;;;;;;;1.55;1.55;;;;;;;;;;5049040;28;20071;-65
2022/01/29 04:12:04;;;;;;;0.35;0.35;;;;;;;;;;5049623;28;20025;-64
2022/01/29 04:14:38;;;;;;;0.43;0.38;;;;;;;;;;5047050;28;20024;-64
2022/01/29 04:17:04;;;;;;;2.85;2.65;;;;;;;;;;5048031;28;20027;-64
2022/01/29 04:19:29;;;;;;;2.10;1.95;;;;;;;;;;5051195;28;20112;-64
2022/01/29 04:21:54;;;;;;;3.45;3.03;;;;;;;;;;5046986;28;20096;-65
2022/01/29 04:24:20;;;;;;;6.25;2.30;;;;;;;;;;5054165;28;20486;-65
2022/01/29 04:26:45;;;;;;;1.45;1.40;;;;;;;;;;5059546;28;20021;-64
2022/01/29 04:29:10;;;;;;;1.52;1.45;;;;;;;;;;5047519;28;20025;-65
2022/01/29 04:31:45;;;;;;;8.38;2.40;;;;;;;;;;5050301;28;20029;-63
2022/01/29 04:34:10;;;;;;;0.00;0.00;;;;;;;;;;5047209;28;20029;-63
2022/01/29 04:36:35;;;;;;;0.00;0.00;;;;;;;;;;5053938;28;20046;-66
2022/01/29 04:39:01;;;;;;;5.60;1.98;;;;;;;;;;5048495;28;20361;-66
2022/01/29 04:41:26;;;;;;;0.63;0.63;;;;;;;;;;5049211;28;20049;-66
2022/01/29 04:43:51;;;;;;;0.10;0.10;;;;;;;;;;5047803;28;20048;-66
2022/01/29 04:46:16;;;;;;;0.88;0.88;;;;;;;;;;5047426;28;20025;-66
2022/01/29 04:48:42;;;;;;;0.10;0.10;;;;;;;;;;5046967;28;20020;-65
2022/01/29 04:51:07;;;;;;;0.13;0.13;;;;;;;;;;5049307;28;20103;-67
2022/01/29 04:53:32;;;;;;;0.68;0.68;;;;;;;;;;5047293;28;20017;-65
2022/01/29 04:55:57;;;;;;;0.32;0.32;;;;;;;;;;5047663;28;20017;-66
2022/01/29 04:58:22;;;;;;;0.25;0.25;;;;;;;;;;5047136;28;20036;-67
2022/01/29 05:00:48;;;;;;;1.50;0.57;;;;;;;;;;5046897;28;20365;-67
2022/01/29 05:03:14;;;;;;;0.20;0.20;;;;;;;;;;5046799;28;20401;-67
2022/01/29 05:05:40;;;;;;;3.03;2.08;;;;;;;;;;5047455;28;20021;-67
2022/01/29 05:08:05;;;;;;;4.07;1.73;;;;;;;;;;5047168;28;20040;-67
2022/01/29 05:10:31;;;;;;;6.03;2.97;;;;;;;;;;5049194;28;20075;-67
2022/01/29 05:13:03;;;;;;;2.47;2.38;;;;;;;;;;5047191;28;20025;-66
2022/01/29 05:28:56;;;;;;;1.52;1.52;;;;;;;;;;5050399;28;20079;-65
2022/01/29 05:31:21;;;;;;;0.00;0.00;;;;;;;;;;5050356;28;20082;-65
2022/01/29 05:33:46;;;;;;;1.90;1.77;;;;;;;;;;5050684;28;20049;-65
2022/01/29 05:36:11;;;;;;;0.70;0.55;;;;;;;;;;5050075;28;20433;-65
2022/01/29 05:38:37;;;;;;;0.20;0.20;;;;;;;;;;5051355;28;20057;-66
2022/01/29 05:41:03;;;;;;;5.10;4.28;;;;;;;;;;5050652;28;20041;-65
2022/01/29 05:43:28;;;;;;;2.40;2.28;;;;;;;;;;5052539;28;20068;-65
2022/01/29 05:45:53;;;;;;;0.47;0.47;;;;;;;;;;5053516;28;20052;-64
2022/01/29 05:48:19;;;;;;;2.88;2.67;;;;;;;;;;5056864;28;20466;-64
2022/01/29 05:50:44;;;;;;;0.30;0.30;;;;;;;;;;5057711;28;21694;-65
2022/01/29 05:53:09;;;;;;;3.33;2.45;;;;;;;;;;5052813;28;20024;-65
2022/01/29 05:55:34;;;;;;;1.52;1.40;;;;;;;;;;5054656;28;20013;-64
2022/01/29 05:58:00;;;;;;;0.38;0.30;;;;;;;;;;5060179;28;20438;-65
2022/01/29 06:00:25;;;;;;;5.80;1.77;;;;;;;;;;5057798;28;20063;-64
2022/01/29 06:02:59;;;;;;;0.20;0.20;;;;;;;;;;5062705;28;20021;-64
2022/01/29 06:05:24;;;;;;;0.65;0.65;;;;;;;;;;5049657;28;20013;-67
2022/01/29 06:07:50;;;;;;;3.00;1.98;;;;;;;;;;5050442;28;20100;-67
2022/01/29 06:10:15;;;;;;;0.88;0.88;;;;;;;;;;5050695;28;20143;-68
2022/01/29 06:12:41;;;;;;;1.77;1.65;;;;;;;;;;5049822;28;20362;-67
2022/01/29 06:15:06;;;;;;;0.30;0.30;;;;;;;;;;5049957;28;20035;-66
2022/01/29 06:17:31;;;;;;;3.72;3.55;;;;;;;;;;5050452;28;20435;-67
2022/01/29 06:19:56;;;;;;;0.60;0.60;;;;;;;;;;5049463;28;20056;-68
2022/01/29 06:22:22;;;;;;;2.17;2.03;;;;;;;;;;5049053;28;20020;-66
2022/01/29 06:24:48;;;;;;;3.60;2.08;;;;;;;;;;5054660;28;20021;-68
2022/01/29 06:27:14;;;;;;;2.25;2.10;;;;;;;;;;5049222;28;20027;-67
2022/01/29 06:29:39;;;;;;;1.10;0.55;;;;;;;;;;5049230;28;20103;-67
2022/01/29 06:32:04;;;;;;;3.72;3.30;;;;;;;;;;5052430;28;20473;-67
2022/01/29 06:34:29;;;;;;;1.85;1.65;;;;;;;;;;5051181;28;20526;-68
2022/01/29 06:36:55;;;;;;;3.47;3.25;;;;;;;;;;5049346;28;20025;-66
2022/01/29 06:39:20;;;;;;;7.43;2.33;;;;;;;;;;5047972;28;20115;-65
2022/01/29 06:41:45;;;;;;;0.45;0.45;;;;;;;;;;5049317;28;20059;-66
2022/01/29 06:44:10;;;;;;;5.68;1.13;;;;;;;;;;5047885;28;20020;-66
2022/01/29 06:46:37;;;;;;;1.08;1.08;;;;;;;;;;5050006;28;20021;-67
2022/01/29 06:49:02;;;;;;;1.80;1.70;;;;;;;;;;5049121;28;20053;-66
2022/01/29 06:51:27;;;;;;;0.57;0.32;;;;;;;;;;5048801;28;20440;-66
2022/01/29 06:53:53;;;;;;;3.65;3.28;;;;;;;;;;5053288;28;20025;-65
2022/01/29 06:56:18;;;;;;;0.60;0.60;;;;;;;;;;5048250;28;20033;-67
2022/01/29 06:58:43;;;;;;;2.53;2.30;;;;;;;;;;5053681;28;20013;-67
2022/01/29 07:01:08;;;;;;;0.65;0.60;;;;;;;;;;5049068;28;20016;-66
2022/01/29 07:03:33;;;;;;;0.93;0.65;;;;;;;;;;5048511;28;20458;-68
2022/01/29 07:05:59;;;;;;;1.50;0.73;;;;;;;;;;5048666;28;20013;-66
2022/01/29 07:08:24;;;;;;;4.18;2.15;;;;;;;;;;5047961;28;20021;-67
2022/01/29 07:10:50;;;;;;;3.85;1.67;;;;;;;;;;5049219;28;20029;-66
2022/01/29 07:13:15;;;;;;;2.83;2.45;;;;;;;;;;5048315;28;20477;-66
2022/01/29 07:15:41;;;;;;;0.85;0.85;;;;;;;;;;5047554;28;20020;-67
2022/01/29 07:18:06;;;;;;;0.00;0.00;;;;;;;;;;5050007;28;20488;-67
2022/01/29 07:20:31;;;;;;;1.05;1.05;;;;;;;;;;5050439;28;20029;-67
2022/01/29 07:22:56;;;;;;;1.45;1.40;;;;;;;;;;5048314;28;20025;-66
2022/01/29 07:25:22;;;;;;;2.20;2.00;;;;;;;;;;5047413;28;20017;-65
2022/01/29 07:27:47;;;;;;;0.47;0.47;;;;;;;;;;5046425;28;20054;-66
2022/01/29 07:30:12;;;;;;;3.03;2.92;;;;;;;;;;5048181;28;20025;-67
2022/01/29 07:32:44;;;;;;;0.32;0.32;;;;;;;;;;5051331;28;20071;-67
2022/01/29 07:35:09;;;;;;;1.08;1.08;;;;;;;;;;5048251;28;20048;-67
2022/01/29 07:37:35;;;;;;;2.25;2.15;;;;;;;;;;5052473;28;20055;-66
2022/01/29 07:40:00;;;;;;;0.05;0.05;;;;;;;;;;5047696;28;20087;-66
2022/01/29 07:42:25;;;;;;;1.30;1.30;;;;;;;;;;5047610;28;20037;-67
2022/01/29 07:44:50;;;;;;;4.28;2.53;;;;;;;;;;5046841;28;20425;-67
2022/01/29 07:47:15;;;;;;;0.20;0.20;;;;;;;;;;5047572;28;20359;-67
2022/01/29 07:49:41;;;;;;;0.00;0.00;;;;;;;;;;5046650;28;20031;-67
2022/01/29 07:52:06;;;;;;;1.02;1.02;;;;;;;;;;5047041;28;20382;-67
2022/01/29 07:54:31;;;;;;;1.15;0.93;;;;;;;;;;5047271;28;20032;-67
2022/01/29 07:56:56;;;;;;;0.00;0.00;;;;;;;;;;5030443;28;20047;-66
2022/01/29 07:59:22;;;;;;;1.30;1.20;;;;;;;;;;5047505;28;20025;-66
2022/01/29 08:01:47;;;;;;;1.85;1.75;;;;;;;;;;5047937;28;20032;-67
2022/01/29 08:04:12;;;;;;;1.45;0.75;;;;;;;;;;5050840;28;20016;-65
2022/01/29 08:06:37;;;;;;;0.32;0.32;;;;;;;;;;5048912;28;20025;-65
2022/01/29 08:09:03;;;;;;;2.05;1.33;;;;;;;;;;5047792;28;20029;-64
2022/01/29 08:11:28;;;;;;;0.52;0.32;;;;;;;;;;5052967;28;20033;-65
2022/01/29 08:13:53;;;;;;;1.75;1.27;;;;;;;;;;5046676;28;20036;-64
2022/01/29 08:16:18;;;;;;;0.00;0.00;;;;;;;;;;5049006;28;20036;-65
2022/01/29 08:18:45;;;;;;;2.75;1.30;;;;;;;;;;5047353;28;20024;-66
2022/01/29 08:21:12;;;;;;;0.85;0.85;;;;;;;;;;5046615;28;20009;-65
2022/01/29 08:23:37;;;;;;;1.48;1.38;;;;;;;;;;5048356;28;20021;-64
2022/01/29 08:26:02;;;;;;;0.65;0.65;;;;;;;;;;5049385;28;20035;-66
2022/01/29 08:28:27;;;;;;;0.88;0.88;;;;;;;;;;5045320;28;20474;-65
2022/01/29 08:30:52;;;;;;;0.57;0.43;;;;;;;;;;5052310;28;20369;-65
2022/01/29 08:33:18;;;;;;;1.08;1.08;;;;;;;;;;5047111;28;20024;-64
2022/01/29 08:35:45;;;;;;;1.00;1.00;;;;;;;;;;5047297;28;20021;-66
2022/01/29 08:38:10;;;;;;;3.80;0.88;;;;;;;;;;5044158;28;20032;-65
2022/01/29 08:40:35;;;;;;;4.03;2.00;;;;;;;;;;5042493;28;20128;-65
2022/01/29 08:43:01;;;;;;;2.78;2.58;;;;;;;;;;5048515;28;20033;-64
2022/01/29 08:45:26;;;;;;;3.10;2.90;;;;;;;;;;5046707;28;20025;-66
2022/01/29 08:47:51;;;;;;;3.55;2.97;;;;;;;;;;5044863;28;20043;-65
2022/01/29 08:50:16;;;;;;;3.20;1.17;;;;;;;;;;5044687;28;20048;-65
2022/01/29 08:52:42;;;;;;;0.60;0.60;;;;;;;;;;5049316;28;20469;-65
2022/01/29 08:55:08;;;;;;;9.38;2.80;;;;;;;;;;5043491;28;20017;-65
2022/01/29 08:57:33;;;;;;;1.17;0.35;;;;;;;;;;5044638;28;20078;-65
2022/01/29 09:00:00;;;;;;;0.45;0.45;;;;;;;;;;5045709;28;20113;-65
2022/01/29 09:02:25;;;;;;;2.35;1.88;;;;;;;;;;5046047;28;20070;-65
2022/01/29 09:04:52;;;;;;;0.28;0.28;;;;;;;;;;5049791;28;20631;-64
2022/01/29 09:07:18;;;;;;;1.65;1.55;;;;;;;;;;5030883;28;20108;-65
2022/01/29 09:09:45;;;;;;;0.47;0.45;;;;;;;;;;5048166;28;21330;-64
2022/01/29 09:12:10;;;;;;;1.73;1.63;;;;;;;;;;5049525;28;20031;-65
2022/01/29 09:14:36;;;;;;;0.15;0.15;;;;;;;;;;5049270;28;20021;-65
2022/01/29 09:17:01;;;;;;;3.72;3.38;;;;;;;;;;5049272;28;20016;-65
2022/01/29 09:19:26;;;;;;;1.80;0.60;;;;;;;;;;5048617;28;20036;-66
2022/01/29 09:21:52;;;;;;;1.55;1.45;;;;;;;;;;5049452;28;20432;-64
2022/01/29 09:24:17;;;;;;;2.22;2.13;;;;;;;;;;5048158;28;20031;-66
2022/01/29 09:26:42;;;;;;;1.48;0.38;;;;;;;;;;5050127;28;20087;-66
2022/01/29 09:29:07;;;;;;;1.17;1.17;;;;;;;;;;5046430;28;20091;-66
2022/01/29 09:31:33;;;;;;;2.53;0.65;;;;;;;;;;5047495;28;20020;-66
2022/01/29 09:33:58;;;;;;;1.10;0.63;;;;;;;;;;5047609;28;20037;-65
2022/01/29 09:36:23;;;;;;;0.98;0.60;;;;;;;;;;5046228;28;20028;-64
2022/01/29 09:38:48;;;;;;;0.55;0.55;;;;;;;;;;5044386;28;20029;-65
2022/01/29 09:41:15;;;;;;;1.85;0.88;;;;;;;;;;5021761;28;20037;-64
2022/01/29 09:43:43;;;;;;;0.98;0.90;;;;;;;;;;5022567;28;20417;-65
2022/01/29 09:46:08;;;;;;;3.38;2.42;;;;;;;;;;5027005;28;20033;-65
2022/01/29 09:48:34;;;;;;;0.82;0.82;;;;;;;;;;5028739;28;20439;-66
2022/01/29 09:50:59;;;;;;;0.52;0.52;;;;;;;;;;5026682;28;20024;-66
2022/01/29 09:53:25;;;;;;;1.42;1.33;;;;;;;;;;5027869;28;20048;-65
2022/01/29 09:55:51;;;;;;;1.55;1.55;;;;;;;;;;5027708;28;20025;-66
2022/01/29 09:58:16;;;;;;;1.25;1.23;;;;;;;;;;5026309;28;20029;-66
2022/01/29 10:00:41;;;;;;;0.98;0.77;;;;;;;;;;5026931;28;20018;-66
2022/01/29 10:03:10;;;;;;;1.65;0.30;;;;;;;;;;5027084;28;20100;-66
2022/01/29 10:05:36;;;;;;;0.13;0.13;;;;;;;;;;5027099;28;20127;-66
2022/01/29 10:08:01;;;;;;;0.63;0.55;;;;;;;;;;5024193;28;20033;-66
2022/01/29 10:10:27;;;;;;;0.00;0.00;;;;;;;;;;5027073;28;20087;-67
2022/01/29 10:12:52;;;;;;;1.70;0.82;;;;;;;;;;5025907;28;20026;-67
2022/01/29 10:15:21;;;;;;;0.68;0.68;;;;;;;;;;5027183;28;20482;-66
2022/01/29 10:17:50;;;;;;;0.63;0.63;;;;;;;;;;5025347;28;20076;-66
2022/01/29 10:20:25;;;;;;;0.13;0.13;;;;;;;;;;5026186;28;20034;-66
2022/01/29 10:22:58;;;;;;;0.03;0.03;;;;;;;;;;5024671;28;20475;-66
2022/01/29 10:25:25;;;;;;;1.35;1.25;;;;;;;;;;5026290;28;20025;-67
2022/01/29 10:28:07;;;;;;;0.30;0.30;;;;;;;;;;5025926;28;20030;-67
2022/01/29 10:30:56;;;;;;;0.20;0.20;;;;;;;;;;5027320;28;20509;-66
2022/01/29 10:33:23;;;;;;;0.70;0.70;;;;;;;;;;5021227;28;20040;-66
2022/01/29 10:35:54;;;;;;;2.17;0.30;;;;;;;;;;5031881;28;20024;-66
2022/01/29 10:38:21;;;;;;;0.57;0.57;;;;;;;;;;5025378;28;20017;-66
2022/01/29 10:41:07;;;;;;;2.42;1.08;;;;;;;;;;5028542;28;20049;-66
2022/01/29 10:43:33;;;;;;;1.42;1.05;;;;;;;;;;5027971;28;20044;-66
2022/01/29 10:45:58;;;;;;;1.08;0.32;;;;;;;;;;5027493;28;20026;-66
2022/01/29 10:48:40;;;;;;;0.45;0.45;;;;;;;;;;5028061;28;20512;-66
2022/01/29 10:51:12;;;;;;;0.55;0.55;;;;;;;;;;5025010;28;20030;-64
2022/01/29 10:53:37;;;;;;;1.70;0.35;;;;;;;;;;5023727;28;20044;-66
2022/01/29 10:56:03;;;;;;;0.20;0.20;;;;;;;;;;5024427;28;20022;-64
2022/01/29 10:58:29;;;;;;;1.23;1.23;;;;;;;;;;5024112;28;20075;-65
2022/01/29 11:01:13;;;;;;;0.10;0.08;;;;;;;;;;5022419;28;20974;-65
2022/01/29 11:03:39;;;;;;;0.00;0.00;;;;;;;;;;5021273;28;20037;-67
2022/01/29 11:06:05;;;;;;;0.43;0.43;;;;;;;;;;5020064;28;20025;-67
2022/01/29 11:08:30;;;;;;;0.63;0.63;;;;;;;;;;5021448;28;20374;-65
2022/01/29 11:10:56;;;;;;;0.73;0.47;;;;;;;;;;5023438;28;20042;-66
2022/01/29 11:13:22;;;;;;;0.47;0.35;;;;;;;;;;5021265;28;20025;-66
2022/01/29 11:15:47;;;;;;;4.75;0.93;;;;;;;;;;5021105;28;20064;-65
2022/01/29 11:18:12;;;;;;;0.10;0.10;;;;;;;;;;5020195;28;20637;-66
2022/01/29 11:20:38;;;;;;;0.52;0.52;;;;;;;;;;5020206;28;20033;-64
2022/01/29 11:23:03;;;;;;;0.00;0.00;;;;;;;;;;5022842;28;20017;-65
2022/01/29 11:25:34;;;;;;;0.93;0.45;;;;;;;;;;5021006;28;20441;-65
2022/01/29 11:28:16;;;;;;;0.22;0.20;;;;;;;;;;5022277;28;20056;-65
2022/01/29 11:30:43;;;;;;;2.85;0.22;;;;;;;;;;5022764;28;20025;-64
2022/01/29 11:33:08;;;;;;;0.30;0.30;;;;;;;;;;5022633;28;20091;-66
2022/01/29 11:35:48;;;;;;;0.00;0.00;;;;;;;;;;5021542;28;20482;-65
2022/01/29 11:38:13;;;;;;;0.63;0.57;;;;;;;;;;5022307;28;20029;-65
2022/01/29 11:40:54;;;;;;;0.65;0.60;;;;;;;;;;5033106;28;20397;-66
2022/01/29 11:43:19;;;;;;;0.57;0.47;;;;;;;;;;5043852;28;20563;-65
2022/01/29 11:45:48;;;;;;;1.23;1.13;;;;;;;;;;5024494;28;20025;-67
2022/01/29 11:50:55;;;;;;;0.20;0.20;;;;;;;;;;5041471;28;20029;-67
2022/01/29 11:53:20;;;;;;;0.28;0.28;;;;;;;;;;5040685;28;20036;-67
2022/01/29 11:55:53;;;;;;;1.05;1.05;;;;;;;;;;5038707;28;20037;-67
2022/01/29 11:58:18;;;;;;;0.20;0.20;;;;;;;;;;5042028;28;20033;-67
2022/01/29 12:00:48;;;;;;;0.45;0.45;;;;;;;;;;5042103;28;20389;-67
2022/01/29 12:03:32;;;;;;;1.75;0.90;;;;;;;;;;5041888;28;20112;-66
2022/01/29 12:09:01;;;;;;;0.32;0.32;;;;;;;;;;5042350;28;20029;-67
2022/01/29 12:11:27;;;;;;;0.35;0.35;;;;;;;;;;5041895;28;20036;-66
2022/01/29 12:14:10;;;;;;;0.60;0.60;;;;;;;;;;5041072;28;20035;-68
2022/01/29 12:16:44;;;;;;;0.65;0.65;;;;;;;;;;5042444;28;20021;-67
2022/01/29 12:19:30;;;;;;;0.00;0.00;;;;;;;;;;5042550;28;20706;-67
2022/01/29 12:21:55;;;;;;;0.40;0.40;;;;;;;;;;5042253;28;20029;-66
2022/01/29 12:24:20;;;;;;;0.38;0.38;;;;;;;;;;5041885;28;20036;-67
2022/01/29 12:26:52;;;;;;;0.10;0.10;;;;;;;;;;5042352;28;20029;-66
2022/01/29 12:29:18;;;;;;;0.10;0.10;;;;;;;;;;5042083;28;20120;-65
2022/01/29 12:31:50;;;;;;;0.00;0.00;;;;;;;;;;5042034;28;21368;-66
2022/01/29 12:34:15;;;;;;;0.30;0.30;;;;;;;;;;5041690;28;20071;-67
2022/01/29 12:36:40;;;;;;;0.30;0.30;;;;;;;;;;5043889;28;20130;-67
2022/01/29 12:39:06;;;;;;;0.20;0.20;;;;;;;;;;5026419;28;20147;-65
2022/01/29 12:41:37;;;;;;;0.25;0.25;;;;;;;;;;5045696;28;20563;-66
2022/01/29 12:44:08;;;;;;;0.10;0.10;;;;;;;;;;5045220;28;20048;-67
2022/01/29 12:46:33;;;;;;;0.08;0.05;;;;;;;;;;5045085;28;20025;-66
2022/01/29 12:49:25;;;;;;;1.55;0.82;;;;;;;;;;5044465;28;20497;-63
2022/01/29 12:51:50;;;;;;;0.35;0.32;;;;;;;;;;5042747;28;20068;-65
2022/01/29 12:54:15;;;;;;;0.00;0.00;;;;;;;;;;5045005;28;20120;-65
2022/01/29 12:56:41;;;;;;;0.30;0.20;;;;;;;;;;5045550;28;20500;-64
2022/01/29 12:59:10;;;;;;;0.40;0.40;;;;;;;;;;5045563;28;20021;-66
2022/01/29 13:01:37;;;;;;;0.00;0.00;;;;;;;;;;5024154;28;20465;-64
2022/01/29 13:04:03;;;;;;;0.20;0.20;;;;;;;;;;5045215;28;20678;-65
2022/01/29 13:06:28;;;;;;;0.00;0.00;;;;;;;;;;5045343;28;20025;-65
2022/01/29 13:09:09;;;;;;;0.00;0.00;;;;;;;;;;5044480;28;20031;-64
2022/01/29 13:11:36;;;;;;;2.08;0.70;;;;;;;;;;5043383;28;20087;-65
2022/01/29 13:14:09;;;;;;;0.20;0.20;;;;;;;;;;5041957;28;20025;-64
2022/01/29 13:16:34;;;;;;;0.10;0.10;;;;;;;;;;5040684;28;20086;-64
2022/01/29 13:18:59;;;;;;;0.45;0.45;;;;;;;;;;5023967;28;20541;-66
2022/01/29 13:21:26;;;;;;;0.10;0.10;;;;;;;;;;5041099;28;20370;-65
2022/01/29 13:23:52;;;;;;;2.60;0.20;;;;;;;;;;5043546;28;20033;-65
2022/01/29 13:26:18;;;;;;;1.42;1.33;;;;;;;;;;5044627;28;20075;-65
2022/01/29 13:28:47;;;;;;;0.03;0.00;;;;;;;;;;5043104;28;20025;-65
2022/01/29 13:31:12;;;;;;;;;;;;;;;;;;5045657;28;20029;-64
2022/01/29 13:33:38;;;;;;;0.20;0.20;;;;;;;;;;5044034;28;19935;-65
2022/01/29 13:36:03;;;;;;;0.00;0.00;;;;;;;;;;5045385;28;21270;-65
2022/01/29 13:38:33;;;;;;;2.20;0.43;;;;;;;;;;5044769;28;20150;-64
2022/01/29 13:41:00;;;;;;;1.85;0.93;;;;;;;;;;5045570;28;20053;-64
2022/01/29 13:43:27;;;;;;;0.00;0.00;;;;;;;;;;5044168;28;20045;-64
2022/01/29 13:45:53;;;;;;;0.00;0.00;;;;;;;;;;5044764;28;20040;-64
2022/01/29 13:48:20;;;;;;;0.20;0.20;;;;;;;;;;5043773;28;20037;-64
2022/01/29 13:50:47;;;;;;;0.00;0.00;;;;;;;;;;5044174;28;20023;-64
2022/01/29 13:53:16;;;;;;;0.10;0.10;;;;;;;;;;5044657;28;20025;-64
2022/01/29 13:55:59;;;;;;;0.93;0.93;;;;;;;;;;5043919;28;20444;-63
2022/01/29 13:58:25;;;;;;;0.38;0.38;;;;;;;;;;5042296;28;20025;-64
2022/01/29 14:00:50;;;;;;;0.10;0.10;;;;;;;;;;5044030;28;20021;-63
2022/01/29 14:03:16;;;;;;;0.00;0.00;;;;;;;;;;5044201;28;20031;-65
2022/01/29 14:05:41;;;;;;;1.17;0.73;;;;;;;;;;5044238;28;20040;-65
2022/01/29 14:08:21;;;;;;;0.20;0.20;;;;;;;;;;5043521;28;20032;-65
2022/01/29 14:10:55;;;;;;;0.20;0.20;;;;;;;;;;5043683;28;20033;-64
2022/01/29 14:13:20;;;;;;;0.00;0.00;;;;;;;;;;5044182;28;20025;-63
2022/01/29 14:15:47;;;;;;;0.00;0.00;;;;;;;;;;5043136;28;20025;-64
2022/01/29 14:18:13;;;;;;;0.10;0.10;;;;;;;;;;5026161;28;21712;-63
2022/01/29 14:20:38;;;;;;;0.25;0.25;;;;;;;;;;5043663;28;20029;-64
2022/01/29 14:23:03;;;;;;;0.00;0.00;;;;;;;;;;5043822;28;20029;-64
2022/01/29 14:25:29;;;;;;;0.00;0.00;;;;;;;;;;5043005;28;21353;-65
2022/01/29 14:27:55;;;;;;;0.47;0.45;;;;;;;;;;5040479;28;20032;-66
2022/01/29 14:30:21;;;;;;;0.22;0.22;;;;;;;;;;5043238;28;21332;-65
2022/01/29 14:32:46;;;;;;;0.25;0.25;;;;;;;;;;5041445;28;20017;-65
2022/01/29 14:35:13;;;;;;;0.10;0.10;;;;;;;;;;5043587;28;20078;-65
2022/01/29 14:37:38;;;;;;;0.60;0.17;;;;;;;;;;5043390;28;20115;-65
2022/01/29 14:40:05;;;;;;;0.30;0.22;;;;;;;;;;5042141;28;20049;-65
2022/01/29 14:42:34;;;;;;;0.08;0.08;;;;;;;;;;5041482;28;20157;-63
2022/01/29 14:44:59;;;;;;;0.70;0.70;;;;;;;;;;5044014;28;20025;-64
2022/01/29 14:47:25;;;;;;;0.70;0.70;;;;;;;;;;5042416;28;20481;-63
2022/01/29 14:49:50;;;;;;;1.58;1.05;;;;;;;;;;5043172;28;20031;-64
2022/01/29 14:52:16;;;;;;;0.28;0.28;;;;;;;;;;5043040;28;20782;-65
2022/01/29 14:54:42;;;;;;;0.00;0.00;;;;;;;;;;5042758;28;20036;-65
2022/01/29 14:57:07;;;;;;;0.03;0.03;;;;;;;;;;5043002;28;20035;-65
2022/01/29 14:59:33;;;;;;;0.52;0.52;;;;;;;;;;5042275;28;20012;-65
2022/01/29 15:01:58;;;;;;;0.63;0.30;;;;;;;;;;5043396;28;20028;-65